sensor_id;sensor_type;location;lat;lon;timestamp;temperature;humidity
22852;DHT22;11592;45.460;9.240;2023-08-06T00:01:27;22.30;99.90
22852;DHT22;11592;45.460;9.240;2023-08-06T00:03:54;22.30;99.90
22852;DHT22;11592;45.460;9.240;2023-08-06T00:06:22;22.30;99.90
22852;DHT22;11592;45.460;9.240;2023-08-06T00:08:48;22.40;99.90
22852;DHT22;11592;45.460;9.240;2023-08-06T00:11:15;22.40;99.90
22852;DHT22;11592;45.460;9.240;2023-08-06T00:13:42;22.50;99.90
22852;DHT22;11592;45.460;9.240;2023-08-06T00:16:13;22.50;99.90
22852;DHT22;11592;45.460;9.240;2023-08-06T00:18:40;22.40;99.90
22852;DHT22;11592;45.460;9.240;2023-08-06T00:21:07;22.50;99.90
22852;DHT22;11592;45.460;9.240;2023-08-06T00:23:34;22.60;99.90
22852;DHT22;11592;45.460;9.240;2023-08-06T00:26:01;22.60;99.90
22852;DHT22;11592;45.460;9.240;2023-08-06T00:28:28;22.50;99.90
22852;DHT22;11592;45.460;9.240;2023-08-06T00:30:55;22.50;99.90
22852;DHT22;11592;45.460;9.240;2023-08-06T00:33:23;22.30;99.90
22852;DHT22;11592;45.460;9.240;2023-08-06T00:35:50;22.40;99.90
22852;DHT22;11592;45.460;9.240;2023-08-06T00:38:17;22.40;99.90
22852;DHT22;11592;45.460;9.240;2023-08-06T00:40:44;22.50;99.90
22852;DHT22;11592;45.460;9.240;2023-08-06T00:43:11;22.50;99.90
22852;DHT22;11592;45.460;9.240;2023-08-06T00:45:38;22.50;99.90
22852;DHT22;11592;45.460;9.240;2023-08-06T00:48:05;22.50;99.90
22852;DHT22;11592;45.460;9.240;2023-08-06T00:50:35;22.50;99.90
22852;DHT22;11592;45.460;9.240;2023-08-06T00:53:02;22.40;99.90
22852;DHT22;11592;45.460;9.240;2023-08-06T00:55:29;22.50;99.90
22852;DHT22;11592;45.460;9.240;2023-08-06T00:57:56;22.50;99.90
22852;DHT22;11592;45.460;9.240;2023-08-06T01:00:24;22.60;99.90
22852;DHT22;11592;45.460;9.240;2023-08-06T01:02:52;22.60;99.90
22852;DHT22;11592;45.460;9.240;2023-08-06T01:05:20;22.60;99.90
22852;DHT22;11592;45.460;9.240;2023-08-06T01:10:51;22.40;99.90
22852;DHT22;11592;45.460;9.240;2023-08-06T01:16:09;22.40;99.90
22852;DHT22;11592;45.460;9.240;2023-08-06T01:18:37;22.30;99.90
22852;DHT22;11592;45.460;9.240;2023-08-06T01:21:05;22.30;99.90
22852;DHT22;11592;45.460;9.240;2023-08-06T01:23:32;22.30;99.90
22852;DHT22;11592;45.460;9.240;2023-08-06T01:26:13;22.00;99.90
22852;DHT22;11592;45.460;9.240;2023-08-06T01:29:03;22.00;99.90
22852;DHT22;11592;45.460;9.240;2023-08-06T01:31:39;21.90;99.90
22852;DHT22;11592;45.460;9.240;2023-08-06T01:34:09;21.80;99.90
22852;DHT22;11592;45.460;9.240;2023-08-06T01:36:37;21.90;99.90
22852;DHT22;11592;45.460;9.240;2023-08-06T01:39:05;22.10;99.90
22852;DHT22;11592;45.460;9.240;2023-08-06T01:41:32;22.00;99.90
22852;DHT22;11592;45.460;9.240;2023-08-06T01:43:59;21.90;99.90
22852;DHT22;11592;45.460;9.240;2023-08-06T01:46:26;21.90;99.90
22852;DHT22;11592;45.460;9.240;2023-08-06T01:48:53;22.00;99.90
22852;DHT22;11592;45.460;9.240;2023-08-06T01:51:20;21.90;99.90
22852;DHT22;11592;45.460;9.240;2023-08-06T01:53:46;21.80;99.90
22852;DHT22;11592;45.460;9.240;2023-08-06T01:56:13;21.70;99.90
22852;DHT22;11592;45.460;9.240;2023-08-06T01:58:40;21.70;99.90
22852;DHT22;11592;45.460;9.240;2023-08-06T02:01:07;21.70;99.90
22852;DHT22;11592;45.460;9.240;2023-08-06T02:03:34;21.90;99.90
22852;DHT22;11592;45.460;9.240;2023-08-06T02:06:00;21.90;99.90
22852;DHT22;11592;45.460;9.240;2023-08-06T02:08:27;21.90;99.90
22852;DHT22;11592;45.460;9.240;2023-08-06T02:10:54;22.10;99.90
22852;DHT22;11592;45.460;9.240;2023-08-06T02:13:21;22.20;99.90
22852;DHT22;11592;45.460;9.240;2023-08-06T02:15:48;22.20;99.90
22852;DHT22;11592;45.460;9.240;2023-08-06T02:18:15;22.30;99.90
22852;DHT22;11592;45.460;9.240;2023-08-06T02:20:42;22.30;99.90
22852;DHT22;11592;45.460;9.240;2023-08-06T02:23:09;22.30;99.90
22852;DHT22;11592;45.460;9.240;2023-08-06T02:25:36;22.30;99.90
22852;DHT22;11592;45.460;9.240;2023-08-06T02:28:03;22.40;99.90
22852;DHT22;11592;45.460;9.240;2023-08-06T02:30:30;22.40;99.90
22852;DHT22;11592;45.460;9.240;2023-08-06T02:32:57;22.50;99.90
22852;DHT22;11592;45.460;9.240;2023-08-06T02:35:24;22.50;99.90
22852;DHT22;11592;45.460;9.240;2023-08-06T02:37:50;22.50;99.90
22852;DHT22;11592;45.460;9.240;2023-08-06T02:40:17;22.40;99.90
22852;DHT22;11592;45.460;9.240;2023-08-06T02:42:44;22.40;99.90
22852;DHT22;11592;45.460;9.240;2023-08-06T02:45:11;22.40;99.90
22852;DHT22;11592;45.460;9.240;2023-08-06T02:47:37;22.30;99.90
22852;DHT22;11592;45.460;9.240;2023-08-06T02:50:05;22.30;99.90
22852;DHT22;11592;45.460;9.240;2023-08-06T02:52:32;22.30;99.90
22852;DHT22;11592;45.460;9.240;2023-08-06T02:54:59;22.30;99.90
22852;DHT22;11592;45.460;9.240;2023-08-06T02:57:26;22.30;99.90
22852;DHT22;11592;45.460;9.240;2023-08-06T02:59:53;22.40;99.90
22852;DHT22;11592;45.460;9.240;2023-08-06T03:02:20;22.30;99.90
22852;DHT22;11592;45.460;9.240;2023-08-06T03:04:49;22.30;99.90
22852;DHT22;11592;45.460;9.240;2023-08-06T03:07:16;22.30;99.90
22852;DHT22;11592;45.460;9.240;2023-08-06T03:09:43;22.20;99.90
22852;DHT22;11592;45.460;9.240;2023-08-06T03:12:09;22.00;99.90
22852;DHT22;11592;45.460;9.240;2023-08-06T03:14:36;21.90;99.90
22852;DHT22;11592;45.460;9.240;2023-08-06T03:17:03;21.80;99.90
22852;DHT22;11592;45.460;9.240;2023-08-06T03:19:30;21.70;99.90
22852;DHT22;11592;45.460;9.240;2023-08-06T03:21:57;21.80;99.90
22852;DHT22;11592;45.460;9.240;2023-08-06T03:24:24;21.80;99.90
22852;DHT22;11592;45.460;9.240;2023-08-06T03:26:50;21.60;99.90
22852;DHT22;11592;45.460;9.240;2023-08-06T03:29:17;21.50;99.90
22852;DHT22;11592;45.460;9.240;2023-08-06T03:31:44;21.40;99.90
22852;DHT22;11592;45.460;9.240;2023-08-06T03:34:11;21.40;99.90
22852;DHT22;11592;45.460;9.240;2023-08-06T03:36:38;21.50;99.90
22852;DHT22;11592;45.460;9.240;2023-08-06T03:39:05;21.50;99.90
22852;DHT22;11592;45.460;9.240;2023-08-06T03:41:32;21.40;99.90
22852;DHT22;11592;45.460;9.240;2023-08-06T03:43:59;21.60;99.90
22852;DHT22;11592;45.460;9.240;2023-08-06T03:46:27;21.70;99.90
22852;DHT22;11592;45.460;9.240;2023-08-06T03:48:54;21.60;99.90
22852;DHT22;11592;45.460;9.240;2023-08-06T03:51:20;21.60;99.90
22852;DHT22;11592;45.460;9.240;2023-08-06T03:53:48;21.60;99.90
22852;DHT22;11592;45.460;9.240;2023-08-06T03:56:14;21.60;99.90
22852;DHT22;11592;45.460;9.240;2023-08-06T03:58:41;21.60;99.90
22852;DHT22;11592;45.460;9.240;2023-08-06T04:01:08;21.70;99.90
22852;DHT22;11592;45.460;9.240;2023-08-06T04:03:35;21.60;99.90
22852;DHT22;11592;45.460;9.240;2023-08-06T04:06:03;21.70;99.90
22852;DHT22;11592;45.460;9.240;2023-08-06T04:08:30;21.70;99.90
22852;DHT22;11592;45.460;9.240;2023-08-06T04:10:57;21.80;99.90
22852;DHT22;11592;45.460;9.240;2023-08-06T04:13:23;21.70;99.90
22852;DHT22;11592;45.460;9.240;2023-08-06T04:15:50;21.60;99.90
22852;DHT22;11592;45.460;9.240;2023-08-06T04:18:17;21.80;99.90
22852;DHT22;11592;45.460;9.240;2023-08-06T04:20:47;21.70;99.90
22852;DHT22;11592;45.460;9.240;2023-08-06T04:23:16;21.70;99.90
22852;DHT22;11592;45.460;9.240;2023-08-06T04:25:43;21.60;99.90
22852;DHT22;11592;45.460;9.240;2023-08-06T04:28:09;21.60;99.90
22852;DHT22;11592;45.460;9.240;2023-08-06T04:30:37;21.60;99.90
22852;DHT22;11592;45.460;9.240;2023-08-06T04:33:04;21.60;99.90
22852;DHT22;11592;45.460;9.240;2023-08-06T04:35:31;21.40;99.90
22852;DHT22;11592;45.460;9.240;2023-08-06T04:37:58;21.30;99.90
22852;DHT22;11592;45.460;9.240;2023-08-06T04:40:26;21.20;99.90
22852;DHT22;11592;45.460;9.240;2023-08-06T04:42:53;21.20;99.90
22852;DHT22;11592;45.460;9.240;2023-08-06T04:45:20;21.30;99.90
22852;DHT22;11592;45.460;9.240;2023-08-06T04:47:46;21.20;99.90
22852;DHT22;11592;45.460;9.240;2023-08-06T04:50:13;21.20;99.90
22852;DHT22;11592;45.460;9.240;2023-08-06T04:52:40;21.20;99.90
22852;DHT22;11592;45.460;9.240;2023-08-06T04:55:07;21.20;99.90
22852;DHT22;11592;45.460;9.240;2023-08-06T04:57:34;21.10;99.90
22852;DHT22;11592;45.460;9.240;2023-08-06T05:00:01;21.10;99.90
22852;DHT22;11592;45.460;9.240;2023-08-06T05:02:28;21.10;99.90
22852;DHT22;11592;45.460;9.240;2023-08-06T05:04:54;21.10;99.90
22852;DHT22;11592;45.460;9.240;2023-08-06T05:07:21;21.10;99.90
22852;DHT22;11592;45.460;9.240;2023-08-06T05:09:48;21.10;99.90
22852;DHT22;11592;45.460;9.240;2023-08-06T05:12:15;21.00;99.90
22852;DHT22;11592;45.460;9.240;2023-08-06T05:14:42;21.10;99.90
22852;DHT22;11592;45.460;9.240;2023-08-06T05:17:09;21.10;99.90
22852;DHT22;11592;45.460;9.240;2023-08-06T05:19:35;21.20;99.90
22852;DHT22;11592;45.460;9.240;2023-08-06T05:22:02;21.20;99.90
22852;DHT22;11592;45.460;9.240;2023-08-06T05:24:29;21.30;99.90
22852;DHT22;11592;45.460;9.240;2023-08-06T05:26:56;21.50;99.90
22852;DHT22;11592;45.460;9.240;2023-08-06T05:29:23;21.60;99.90
22852;DHT22;11592;45.460;9.240;2023-08-06T05:31:50;21.70;99.90
22852;DHT22;11592;45.460;9.240;2023-08-06T05:34:17;21.90;99.90
22852;DHT22;11592;45.460;9.240;2023-08-06T05:36:44;21.90;99.90
22852;DHT22;11592;45.460;9.240;2023-08-06T05:39:10;22.00;99.90
22852;DHT22;11592;45.460;9.240;2023-08-06T05:41:37;22.00;99.90
22852;DHT22;11592;45.460;9.240;2023-08-06T05:44:04;21.90;99.90
22852;DHT22;11592;45.460;9.240;2023-08-06T05:46:31;21.80;99.90
22852;DHT22;11592;45.460;9.240;2023-08-06T05:48:58;21.70;99.90
22852;DHT22;11592;45.460;9.240;2023-08-06T05:51:26;21.70;99.90
22852;DHT22;11592;45.460;9.240;2023-08-06T05:53:54;21.70;99.90
22852;DHT22;11592;45.460;9.240;2023-08-06T05:56:20;21.70;99.90
22852;DHT22;11592;45.460;9.240;2023-08-06T05:58:47;21.60;99.90
22852;DHT22;11592;45.460;9.240;2023-08-06T06:01:15;21.60;99.90
22852;DHT22;11592;45.460;9.240;2023-08-06T06:03:42;21.60;99.90
22852;DHT22;11592;45.460;9.240;2023-08-06T06:06:09;21.60;99.90
22852;DHT22;11592;45.460;9.240;2023-08-06T06:08:36;21.80;99.90
22852;DHT22;11592;45.460;9.240;2023-08-06T06:11:02;22.00;99.90
22852;DHT22;11592;45.460;9.240;2023-08-06T06:13:29;21.90;99.90
22852;DHT22;11592;45.460;9.240;2023-08-06T06:15:56;22.00;99.90
22852;DHT22;11592;45.460;9.240;2023-08-06T06:18:23;22.00;99.90
22852;DHT22;11592;45.460;9.240;2023-08-06T06:20:50;22.00;99.90
22852;DHT22;11592;45.460;9.240;2023-08-06T06:23:16;22.00;99.90
22852;DHT22;11592;45.460;9.240;2023-08-06T06:25:47;22.20;99.90
22852;DHT22;11592;45.460;9.240;2023-08-06T06:28:14;22.50;99.90
22852;DHT22;11592;45.460;9.240;2023-08-06T06:30:42;22.60;99.90
22852;DHT22;11592;45.460;9.240;2023-08-06T06:33:09;22.50;99.90
22852;DHT22;11592;45.460;9.240;2023-08-06T06:35:36;22.40;99.90
22852;DHT22;11592;45.460;9.240;2023-08-06T06:38:03;22.40;99.90
22852;DHT22;11592;45.460;9.240;2023-08-06T06:40:30;22.30;99.90
22852;DHT22;11592;45.460;9.240;2023-08-06T06:42:57;22.30;99.90
22852;DHT22;11592;45.460;9.240;2023-08-06T06:45:23;22.40;99.90
22852;DHT22;11592;45.460;9.240;2023-08-06T06:47:50;22.50;99.90
22852;DHT22;11592;45.460;9.240;2023-08-06T06:50:17;22.60;99.90
22852;DHT22;11592;45.460;9.240;2023-08-06T06:52:44;22.60;99.90
22852;DHT22;11592;45.460;9.240;2023-08-06T06:55:11;22.60;99.90
22852;DHT22;11592;45.460;9.240;2023-08-06T06:57:38;22.70;99.90
22852;DHT22;11592;45.460;9.240;2023-08-06T07:00:05;22.70;99.90
22852;DHT22;11592;45.460;9.240;2023-08-06T07:02:32;22.70;99.90
22852;DHT22;11592;45.460;9.240;2023-08-06T07:04:59;22.70;99.90
22852;DHT22;11592;45.460;9.240;2023-08-06T07:07:26;22.80;99.90
22852;DHT22;11592;45.460;9.240;2023-08-06T07:09:52;22.90;99.90
22852;DHT22;11592;45.460;9.240;2023-08-06T07:12:19;23.00;99.90
22852;DHT22;11592;45.460;9.240;2023-08-06T07:14:48;23.00;99.90
22852;DHT22;11592;45.460;9.240;2023-08-06T07:17:15;23.00;99.90
22852;DHT22;11592;45.460;9.240;2023-08-06T07:19:41;23.10;99.90
22852;DHT22;11592;45.460;9.240;2023-08-06T07:22:08;23.10;99.90
22852;DHT22;11592;45.460;9.240;2023-08-06T07:24:35;23.20;99.90
22852;DHT22;11592;45.460;9.240;2023-08-06T07:27:02;23.30;99.90
22852;DHT22;11592;45.460;9.240;2023-08-06T07:29:29;23.50;99.90
22852;DHT22;11592;45.460;9.240;2023-08-06T07:31:56;23.50;99.90
22852;DHT22;11592;45.460;9.240;2023-08-06T07:34:23;23.60;99.90
22852;DHT22;11592;45.460;9.240;2023-08-06T07:36:49;23.60;99.90
22852;DHT22;11592;45.460;9.240;2023-08-06T07:39:16;23.70;99.90
22852;DHT22;11592;45.460;9.240;2023-08-06T07:41:43;23.70;99.90
22852;DHT22;11592;45.460;9.240;2023-08-06T07:44:12;23.70;99.90
22852;DHT22;11592;45.460;9.240;2023-08-06T07:46:39;23.90;99.90
22852;DHT22;11592;45.460;9.240;2023-08-06T07:49:06;23.90;99.90
22852;DHT22;11592;45.460;9.240;2023-08-06T07:51:33;23.90;99.90
22852;DHT22;11592;45.460;9.240;2023-08-06T07:54:00;23.90;99.90
22852;DHT22;11592;45.460;9.240;2023-08-06T07:56:27;24.00;99.90
22852;DHT22;11592;45.460;9.240;2023-08-06T07:58:54;24.00;99.90
22852;DHT22;11592;45.460;9.240;2023-08-06T08:01:20;24.10;99.90
22852;DHT22;11592;45.460;9.240;2023-08-06T08:03:47;24.10;99.90
22852;DHT22;11592;45.460;9.240;2023-08-06T08:06:14;24.10;99.90
22852;DHT22;11592;45.460;9.240;2023-08-06T08:08:41;24.10;99.90
22852;DHT22;11592;45.460;9.240;2023-08-06T08:11:08;24.20;99.90
22852;DHT22;11592;45.460;9.240;2023-08-06T08:13:35;24.20;99.90
22852;DHT22;11592;45.460;9.240;2023-08-06T08:16:02;24.30;99.90
22852;DHT22;11592;45.460;9.240;2023-08-06T08:18:28;24.30;99.90
22852;DHT22;11592;45.460;9.240;2023-08-06T08:20:57;24.50;99.90
22852;DHT22;11592;45.460;9.240;2023-08-06T08:23:24;24.50;99.90
22852;DHT22;11592;45.460;9.240;2023-08-06T08:25:51;24.50;99.90
22852;DHT22;11592;45.460;9.240;2023-08-06T08:28:18;24.50;99.90
22852;DHT22;11592;45.460;9.240;2023-08-06T08:30:45;24.50;99.90
22852;DHT22;11592;45.460;9.240;2023-08-06T08:33:12;24.50;99.90
22852;DHT22;11592;45.460;9.240;2023-08-06T08:35:39;24.30;99.90
22852;DHT22;11592;45.460;9.240;2023-08-06T08:38:06;24.40;99.90
22852;DHT22;11592;45.460;9.240;2023-08-06T08:40:37;24.40;99.90
22852;DHT22;11592;45.460;9.240;2023-08-06T08:43:08;24.50;99.90
22852;DHT22;11592;45.460;9.240;2023-08-06T08:45:39;24.60;99.90
22852;DHT22;11592;45.460;9.240;2023-08-06T08:48:09;24.80;99.90
22852;DHT22;11592;45.460;9.240;2023-08-06T08:50:39;24.90;99.90
22852;DHT22;11592;45.460;9.240;2023-08-06T08:53:06;25.10;99.90
22852;DHT22;11592;45.460;9.240;2023-08-06T08:55:33;25.10;99.90
22852;DHT22;11592;45.460;9.240;2023-08-06T08:58:01;25.20;99.90
22852;DHT22;11592;45.460;9.240;2023-08-06T09:00:28;25.30;99.90
22852;DHT22;11592;45.460;9.240;2023-08-06T09:02:56;25.50;99.90
22852;DHT22;11592;45.460;9.240;2023-08-06T09:05:23;25.80;99.90
22852;DHT22;11592;45.460;9.240;2023-08-06T09:07:53;25.80;99.90
22852;DHT22;11592;45.460;9.240;2023-08-06T09:10:21;25.80;99.40
22852;DHT22;11592;45.460;9.240;2023-08-06T09:12:51;26.00;99.70
22852;DHT22;11592;45.460;9.240;2023-08-06T09:15:23;26.10;99.90
22852;DHT22;11592;45.460;9.240;2023-08-06T09:17:51;26.20;96.00
22852;DHT22;11592;45.460;9.240;2023-08-06T09:20:18;26.20;95.80
22852;DHT22;11592;45.460;9.240;2023-08-06T09:22:45;26.50;95.30
22852;DHT22;11592;45.460;9.240;2023-08-06T09:25:24;26.50;94.90
22852;DHT22;11592;45.460;9.240;2023-08-06T09:27:52;26.70;92.20
22852;DHT22;11592;45.460;9.240;2023-08-06T09:30:32;26.80;89.70
22852;DHT22;11592;45.460;9.240;2023-08-06T09:33:00;26.90;83.70
22852;DHT22;11592;45.460;9.240;2023-08-06T09:35:31;27.00;84.70
22852;DHT22;11592;45.460;9.240;2023-08-06T09:38:08;27.10;79.40
22852;DHT22;11592;45.460;9.240;2023-08-06T09:40:37;27.30;79.00
22852;DHT22;11592;45.460;9.240;2023-08-06T09:43:04;27.40;78.50
22852;DHT22;11592;45.460;9.240;2023-08-06T09:45:34;27.50;75.20
22852;DHT22;11592;45.460;9.240;2023-08-06T09:48:06;27.60;75.50
22852;DHT22;11592;45.460;9.240;2023-08-06T09:50:35;27.70;72.00
22852;DHT22;11592;45.460;9.240;2023-08-06T09:53:04;27.80;72.50
22852;DHT22;11592;45.460;9.240;2023-08-06T09:55:32;27.80;71.40
22852;DHT22;11592;45.460;9.240;2023-08-06T09:58:00;27.70;68.20
22852;DHT22;11592;45.460;9.240;2023-08-06T10:00:27;27.60;67.10
22852;DHT22;11592;45.460;9.240;2023-08-06T10:02:55;27.70;65.20
22852;DHT22;11592;45.460;9.240;2023-08-06T10:05:26;27.90;65.00
22852;DHT22;11592;45.460;9.240;2023-08-06T10:07:53;27.90;62.70
22852;DHT22;11592;45.460;9.240;2023-08-06T10:10:23;27.90;61.00
22852;DHT22;11592;45.460;9.240;2023-08-06T10:12:55;27.90;60.60
22852;DHT22;11592;45.460;9.240;2023-08-06T10:15:27;27.90;60.40
22852;DHT22;11592;45.460;9.240;2023-08-06T10:17:57;28.10;59.50
22852;DHT22;11592;45.460;9.240;2023-08-06T10:20:25;28.00;59.10
22852;DHT22;11592;45.460;9.240;2023-08-06T10:23:05;28.00;61.70
22852;DHT22;11592;45.460;9.240;2023-08-06T10:25:35;28.00;60.60
22852;DHT22;11592;45.460;9.240;2023-08-06T10:28:10;28.00;58.70
22852;DHT22;11592;45.460;9.240;2023-08-06T10:30:47;28.00;58.70
22852;DHT22;11592;45.460;9.240;2023-08-06T10:33:14;28.30;59.60
22852;DHT22;11592;45.460;9.240;2023-08-06T10:35:44;28.40;59.40
22852;DHT22;11592;45.460;9.240;2023-08-06T10:38:22;28.60;57.10
22852;DHT22;11592;45.460;9.240;2023-08-06T10:43:30;28.60;57.50
22852;DHT22;11592;45.460;9.240;2023-08-06T10:45:59;28.80;56.80
22852;DHT22;11592;45.460;9.240;2023-08-06T10:48:37;28.80;56.00
22852;DHT22;11592;45.460;9.240;2023-08-06T10:51:08;29.00;57.00
22852;DHT22;11592;45.460;9.240;2023-08-06T10:53:36;29.30;57.60
22852;DHT22;11592;45.460;9.240;2023-08-06T10:56:15;29.50;56.30
22852;DHT22;11592;45.460;9.240;2023-08-06T10:58:43;29.70;56.10
22852;DHT22;11592;45.460;9.240;2023-08-06T11:01:11;30.00;59.20
22852;DHT22;11592;45.460;9.240;2023-08-06T11:03:38;30.20;56.20
22852;DHT22;11592;45.460;9.240;2023-08-06T11:06:09;30.50;56.20
22852;DHT22;11592;45.460;9.240;2023-08-06T11:08:38;30.50;55.20
22852;DHT22;11592;45.460;9.240;2023-08-06T11:11:13;30.30;56.70
22852;DHT22;11592;45.460;9.240;2023-08-06T11:13:50;29.90;57.80
22852;DHT22;11592;45.460;9.240;2023-08-06T11:16:20;30.10;59.00
22852;DHT22;11592;45.460;9.240;2023-08-06T11:18:47;30.60;56.40
22852;DHT22;11592;45.460;9.240;2023-08-06T11:21:14;30.90;56.80
22852;DHT22;11592;45.460;9.240;2023-08-06T11:23:44;30.20;61.90
22852;DHT22;11592;45.460;9.240;2023-08-06T11:26:11;30.00;64.00
22852;DHT22;11592;45.460;9.240;2023-08-06T11:28:40;30.10;64.30
22852;DHT22;11592;45.460;9.240;2023-08-06T11:31:19;29.60;64.90
22852;DHT22;11592;45.460;9.240;2023-08-06T11:33:46;29.30;66.10
22852;DHT22;11592;45.460;9.240;2023-08-06T11:36:12;29.30;65.60
22852;DHT22;11592;45.460;9.240;2023-08-06T11:38:39;29.60;64.40
22852;DHT22;11592;45.460;9.240;2023-08-06T11:41:07;29.70;64.60
22852;DHT22;11592;45.460;9.240;2023-08-06T11:43:33;30.20;65.00
22852;DHT22;11592;45.460;9.240;2023-08-06T11:46:00;30.70;64.20
22852;DHT22;11592;45.460;9.240;2023-08-06T11:48:27;31.10;63.00
22852;DHT22;11592;45.460;9.240;2023-08-06T11:50:54;31.30;62.40
22852;DHT22;11592;45.460;9.240;2023-08-06T11:53:27;31.40;62.50
22852;DHT22;11592;45.460;9.240;2023-08-06T11:55:54;31.30;63.20
22852;DHT22;11592;45.460;9.240;2023-08-06T11:58:21;31.40;63.90
22852;DHT22;11592;45.460;9.240;2023-08-06T12:00:48;31.60;64.20
22852;DHT22;11592;45.460;9.240;2023-08-06T12:03:18;31.70;57.30
22852;DHT22;11592;45.460;9.240;2023-08-06T12:05:45;31.70;59.30
22852;DHT22;11592;45.460;9.240;2023-08-06T12:08:13;31.50;62.50
22852;DHT22;11592;45.460;9.240;2023-08-06T12:10:40;31.50;62.60
22852;DHT22;11592;45.460;9.240;2023-08-06T12:13:07;31.10;63.20
22852;DHT22;11592;45.460;9.240;2023-08-06T12:15:34;30.90;62.30
22852;DHT22;11592;45.460;9.240;2023-08-06T12:18:01;31.10;63.20
22852;DHT22;11592;45.460;9.240;2023-08-06T12:20:28;31.30;64.20
22852;DHT22;11592;45.460;9.240;2023-08-06T12:22:55;31.50;64.60
22852;DHT22;11592;45.460;9.240;2023-08-06T12:25:22;31.50;62.60
22852;DHT22;11592;45.460;9.240;2023-08-06T12:27:50;31.90;64.80
22852;DHT22;11592;45.460;9.240;2023-08-06T12:30:17;32.20;62.00
22852;DHT22;11592;45.460;9.240;2023-08-06T12:32:44;31.60;61.10
22852;DHT22;11592;45.460;9.240;2023-08-06T12:35:11;31.00;62.80
22852;DHT22;11592;45.460;9.240;2023-08-06T12:37:37;30.50;62.10
22852;DHT22;11592;45.460;9.240;2023-08-06T12:40:09;30.70;62.90
22852;DHT22;11592;45.460;9.240;2023-08-06T12:42:55;31.10;60.30
22852;DHT22;11592;45.460;9.240;2023-08-06T12:45:23;30.90;58.80
22852;DHT22;11592;45.460;9.240;2023-08-06T12:47:50;31.20;59.40
22852;DHT22;11592;45.460;9.240;2023-08-06T12:50:17;30.80;59.20
22852;DHT22;11592;45.460;9.240;2023-08-06T12:52:44;31.20;57.90
22852;DHT22;11592;45.460;9.240;2023-08-06T12:55:11;31.60;56.60
22852;DHT22;11592;45.460;9.240;2023-08-06T12:57:38;31.60;57.40
22852;DHT22;11592;45.460;9.240;2023-08-06T13:00:24;31.90;54.90
22852;DHT22;11592;45.460;9.240;2023-08-06T13:02:51;32.10;54.20
22852;DHT22;11592;45.460;9.240;2023-08-06T13:05:18;32.20;52.60
22852;DHT22;11592;45.460;9.240;2023-08-06T13:07:45;32.40;52.40
22852;DHT22;11592;45.460;9.240;2023-08-06T13:10:12;32.00;53.20
22852;DHT22;11592;45.460;9.240;2023-08-06T13:12:39;32.40;54.00
22852;DHT22;11592;45.460;9.240;2023-08-06T13:15:06;33.10;53.80
22852;DHT22;11592;45.460;9.240;2023-08-06T13:17:33;33.40;52.90
22852;DHT22;11592;45.460;9.240;2023-08-06T13:20:00;33.40;53.00
22852;DHT22;11592;45.460;9.240;2023-08-06T13:22:26;33.50;52.40
22852;DHT22;11592;45.460;9.240;2023-08-06T13:24:53;33.40;52.40
22852;DHT22;11592;45.460;9.240;2023-08-06T13:27:20;33.80;51.70
22852;DHT22;11592;45.460;9.240;2023-08-06T13:29:47;33.90;51.40
22852;DHT22;11592;45.460;9.240;2023-08-06T13:32:14;34.00;51.40
22852;DHT22;11592;45.460;9.240;2023-08-06T13:34:41;34.40;50.80
22852;DHT22;11592;45.460;9.240;2023-08-06T13:37:08;35.00;48.60
22852;DHT22;11592;45.460;9.240;2023-08-06T13:39:34;35.70;49.00
22852;DHT22;11592;45.460;9.240;2023-08-06T13:42:01;36.40;43.40
22852;DHT22;11592;45.460;9.240;2023-08-06T13:44:28;37.00;37.50
22852;DHT22;11592;45.460;9.240;2023-08-06T13:46:55;37.70;35.70
22852;DHT22;11592;45.460;9.240;2023-08-06T13:49:22;38.50;32.90
22852;DHT22;11592;45.460;9.240;2023-08-06T13:51:49;39.20;33.00
22852;DHT22;11592;45.460;9.240;2023-08-06T13:54:16;39.50;34.00
22852;DHT22;11592;45.460;9.240;2023-08-06T13:56:43;39.90;29.40
22852;DHT22;11592;45.460;9.240;2023-08-06T13:59:10;39.70;28.30
22852;DHT22;11592;45.460;9.240;2023-08-06T14:01:40;39.10;28.00
22852;DHT22;11592;45.460;9.240;2023-08-06T14:04:17;39.30;27.80
22852;DHT22;11592;45.460;9.240;2023-08-06T14:06:44;39.00;27.30
22852;DHT22;11592;45.460;9.240;2023-08-06T14:09:11;38.90;28.00
22852;DHT22;11592;45.460;9.240;2023-08-06T14:11:40;39.60;27.70
22852;DHT22;11592;45.460;9.240;2023-08-06T14:14:07;40.20;26.60
22852;DHT22;11592;45.460;9.240;2023-08-06T14:16:34;40.10;26.20
22852;DHT22;11592;45.460;9.240;2023-08-06T14:19:01;39.80;26.80
22852;DHT22;11592;45.460;9.240;2023-08-06T14:21:28;40.00;27.00
22852;DHT22;11592;45.460;9.240;2023-08-06T14:23:55;39.50;25.90
22852;DHT22;11592;45.460;9.240;2023-08-06T14:26:22;39.60;26.80
22852;DHT22;11592;45.460;9.240;2023-08-06T14:28:49;39.60;25.20
22852;DHT22;11592;45.460;9.240;2023-08-06T14:31:20;39.60;25.10
22852;DHT22;11592;45.460;9.240;2023-08-06T14:33:47;39.50;25.20
22852;DHT22;11592;45.460;9.240;2023-08-06T14:36:14;39.50;25.70
22852;DHT22;11592;45.460;9.240;2023-08-06T14:38:41;38.70;23.90
22852;DHT22;11592;45.460;9.240;2023-08-06T14:41:24;37.90;24.50
22852;DHT22;11592;45.460;9.240;2023-08-06T14:43:51;38.10;25.10
22852;DHT22;11592;45.460;9.240;2023-08-06T14:46:18;38.20;24.90
22852;DHT22;11592;45.460;9.240;2023-08-06T14:48:45;38.20;26.10
22852;DHT22;11592;45.460;9.240;2023-08-06T14:51:12;38.30;26.00
22852;DHT22;11592;45.460;9.240;2023-08-06T14:53:39;38.40;24.60
22852;DHT22;11592;45.460;9.240;2023-08-06T14:56:06;38.50;24.40
22852;DHT22;11592;45.460;9.240;2023-08-06T14:58:33;38.60;25.20
22852;DHT22;11592;45.460;9.240;2023-08-06T15:00:59;38.50;25.20
22852;DHT22;11592;45.460;9.240;2023-08-06T15:03:26;38.10;24.70
22852;DHT22;11592;45.460;9.240;2023-08-06T15:05:54;37.90;25.30
22852;DHT22;11592;45.460;9.240;2023-08-06T15:08:21;38.20;26.90
22852;DHT22;11592;45.460;9.240;2023-08-06T15:10:54;38.10;25.60
22852;DHT22;11592;45.460;9.240;2023-08-06T15:13:21;38.10;25.80
22852;DHT22;11592;45.460;9.240;2023-08-06T15:15:49;38.10;26.60
22852;DHT22;11592;45.460;9.240;2023-08-06T15:18:16;38.00;26.80
22852;DHT22;11592;45.460;9.240;2023-08-06T15:20:43;38.20;27.20
22852;DHT22;11592;45.460;9.240;2023-08-06T15:23:10;38.00;26.70
22852;DHT22;11592;45.460;9.240;2023-08-06T15:25:36;37.80;27.40
22852;DHT22;11592;45.460;9.240;2023-08-06T15:28:03;37.60;28.00
22852;DHT22;11592;45.460;9.240;2023-08-06T15:30:30;37.70;28.80
22852;DHT22;11592;45.460;9.240;2023-08-06T15:32:57;37.50;27.90
22852;DHT22;11592;45.460;9.240;2023-08-06T15:35:24;37.20;28.50
22852;DHT22;11592;45.460;9.240;2023-08-06T15:37:51;36.90;28.70
22852;DHT22;11592;45.460;9.240;2023-08-06T15:40:17;36.80;29.10
22852;DHT22;11592;45.460;9.240;2023-08-06T15:42:45;36.50;28.70